首页
METAR-TAF:

METAR-TAF

机场 :

多尼戈爾, 爱尔兰

纬度: 55-02-39N, 经度: 8-20-28W, 海拔: 9米

当前天气观测

该预报发布于37分钟前的10:00 UTC
风速10节,风向
温度 6°C
湿度 75%
气压 994 hPa
能见度10公里或以上
阴天层高于2300英尺

METAR: EIDL 221000Z 01010KT 9999 OVC023 06/02 Q0994

时间: 10:37 (10:37 UTC)

预报

该预报发布于2小时和37分钟前的08:00 UTC
预报有效从22日的 09点(UTC)到 22日的 18点(UTC)
风速8节,风向东转东北
能见度10公里或以上
少量云层高于1000英尺
多云层高于2000英尺
几率 30% :
短暂存在
从 22日的 10点(UTC)到 22日的 18点(UTC)
能見度: 5000
小阵雨

TAF: EIDL 220800Z 2209/2218 06008KT 9999 FEW010 BKN020 PROB30 TEMPO 2210/2218 5000 -SHRA

超过4000个机场的气象观测和天气预报(METAR&TAF报告)。

可查询的气象台以黄色和红色小点在地图上表示。

将鼠标移到小点上方,可查看气象台名称。

然后点击查看天气观测和预报。

如需切换地图:点击带黑十字的绿色按钮放大地图;点击带横线的绿色按钮缩小地图;或者点击绿色箭头查看邻近地区的地图。


METAR-TAF: